sensor_id;sensor_type;location;lat;lon;timestamp;pressure;altitude;pressure_sealevel;temperature;humidity
26531;BME280;14201;43.188;24.160;2023-09-18T00:01:37;100082.00;;;19.21;93.20
26531;BME280;14201;43.188;24.160;2023-09-18T00:04:05;100084.53;;;19.13;94.00
26531;BME280;14201;43.188;24.160;2023-09-18T00:06:32;100081.91;;;19.15;94.47
26531;BME280;14201;43.188;24.160;2023-09-18T00:08:59;100084.53;;;19.13;94.01
26531;BME280;14201;43.188;24.160;2023-09-18T00:11:24;100075.88;;;19.23;93.61
26531;BME280;14201;43.188;24.160;2023-09-18T00:13:50;100072.38;;;19.24;93.34
26531;BME280;14201;43.188;24.160;2023-09-18T00:16:15;100081.16;;;19.23;94.32
26531;BME280;14201;43.188;24.160;2023-09-18T00:18:42;100083.88;;;19.28;94.15
26531;BME280;14201;43.188;24.160;2023-09-18T00:21:08;100083.94;;;19.34;93.62
26531;BME280;14201;43.188;24.160;2023-09-18T00:23:36;100084.94;;;19.42;93.12
26531;BME280;14201;43.188;24.160;2023-09-18T00:26:02;100081.41;;;19.42;93.06
26531;BME280;14201;43.188;24.160;2023-09-18T00:28:27;100074.47;;;19.50;92.57
26531;BME280;14201;43.188;24.160;2023-09-18T00:30:53;100082.41;;;19.48;92.13
26531;BME280;14201;43.188;24.160;2023-09-18T00:33:19;100080.66;;;19.52;91.20
26531;BME280;14201;43.188;24.160;2023-09-18T00:35:46;100076.19;;;19.48;91.63
26531;BME280;14201;43.188;24.160;2023-09-18T00:38:12;100077.19;;;19.55;91.33
26531;BME280;14201;43.188;24.160;2023-09-18T00:40:37;100078.97;;;19.57;90.85
26531;BME280;14201;43.188;24.160;2023-09-18T00:43:03;100083.41;;;19.58;90.55
26531;BME280;14201;43.188;24.160;2023-09-18T00:45:29;100086.94;;;19.59;90.97
26531;BME280;14201;43.188;24.160;2023-09-18T00:47:55;100083.41;;;19.61;90.43
26531;BME280;14201;43.188;24.160;2023-09-18T00:50:21;100078.22;;;19.66;89.17
26531;BME280;14201;43.188;24.160;2023-09-18T00:52:47;100080.63;;;19.49;88.43
26531;BME280;14201;43.188;24.160;2023-09-18T00:55:14;100072.72;;;19.51;88.43
26531;BME280;14201;43.188;24.160;2023-09-18T00:57:41;100082.47;;;19.55;88.65
26531;BME280;14201;43.188;24.160;2023-09-18T01:00:08;100080.75;;;19.58;88.46
26531;BME280;14201;43.188;24.160;2023-09-18T01:02:34;100086.91;;;19.57;88.40
26531;BME280;14201;43.188;24.160;2023-09-18T01:05:00;100086.78;;;19.48;88.71
26531;BME280;14201;43.188;24.160;2023-09-18T01:07:26;100088.06;;;19.15;90.67
26531;BME280;14201;43.188;24.160;2023-09-18T01:09:54;100093.47;;;19.23;89.80
26531;BME280;14201;43.188;24.160;2023-09-18T01:12:37;100096.81;;;19.11;90.40
26531;BME280;14201;43.188;24.160;2023-09-18T01:15:22;100092.63;;;18.69;93.31
26531;BME280;14201;43.188;24.160;2023-09-18T01:17:52;100086.06;;;18.47;94.66
26531;BME280;14201;43.188;24.160;2023-09-18T01:20:17;100105.19;;;18.32;96.07
26531;BME280;14201;43.188;24.160;2023-09-18T01:22:43;100101.69;;;18.35;96.66
26531;BME280;14201;43.188;24.160;2023-09-18T01:25:09;100103.47;;;18.37;97.73
26531;BME280;14201;43.188;24.160;2023-09-18T01:27:34;100086.47;;;18.20;99.58
26531;BME280;14201;43.188;24.160;2023-09-18T01:30:00;100097.91;;;18.20;100.00
26531;BME280;14201;43.188;24.160;2023-09-18T01:32:29;100105.06;;;18.27;100.00
26531;BME280;14201;43.188;24.160;2023-09-18T01:34:56;100107.91;;;18.38;100.00
26531;BME280;14201;43.188;24.160;2023-09-18T01:37:26;100094.84;;;18.44;100.00
26531;BME280;14201;43.188;24.160;2023-09-18T01:39:52;100092.38;;;18.54;100.00
26531;BME280;14201;43.188;24.160;2023-09-18T01:42:19;100097.84;;;18.66;99.21
26531;BME280;14201;43.188;24.160;2023-09-18T01:44:47;100095.28;;;18.72;98.36
26531;BME280;14201;43.188;24.160;2023-09-18T01:47:16;100103.50;;;18.87;97.02
26531;BME280;14201;43.188;24.160;2023-09-18T01:49:43;100099.09;;;18.86;97.27
26531;BME280;14201;43.188;24.160;2023-09-18T01:52:09;100094.53;;;18.79;97.29
26531;BME280;14201;43.188;24.160;2023-09-18T01:54:35;100099.13;;;18.89;96.71
26531;BME280;14201;43.188;24.160;2023-09-18T01:57:02;100096.56;;;18.96;96.15
26531;BME280;14201;43.188;24.160;2023-09-18T01:59:28;100093.19;;;19.03;95.22
26531;BME280;14201;43.188;24.160;2023-09-18T02:01:54;100094.16;;;19.08;94.84
26531;BME280;14201;43.188;24.160;2023-09-18T02:04:20;100093.34;;;19.15;94.18
26531;BME280;14201;43.188;24.160;2023-09-18T02:06:47;100100.50;;;19.22;93.24
26531;BME280;14201;43.188;24.160;2023-09-18T02:09:13;100103.25;;;19.27;92.67
26531;BME280;14201;43.188;24.160;2023-09-18T02:11:40;100098.84;;;19.27;92.64
26531;BME280;14201;43.188;24.160;2023-09-18T02:14:07;100101.50;;;19.29;92.76
26531;BME280;14201;43.188;24.160;2023-09-18T02:16:36;100103.19;;;19.24;92.54
26531;BME280;14201;43.188;24.160;2023-09-18T02:19:02;100088.91;;;19.11;92.74
26531;BME280;14201;43.188;24.160;2023-09-18T02:21:28;100103.97;;;19.18;92.73
26531;BME280;14201;43.188;24.160;2023-09-18T02:23:54;100101.47;;;19.27;91.97
26531;BME280;14201;43.188;24.160;2023-09-18T02:26:21;100106.69;;;19.24;92.00
26531;BME280;14201;43.188;24.160;2023-09-18T02:28:47;100102.75;;;18.95;94.25
26531;BME280;14201;43.188;24.160;2023-09-18T02:31:13;100100.91;;;18.91;94.44
26531;BME280;14201;43.188;24.160;2023-09-18T02:33:42;100095.50;;;18.81;95.53
26531;BME280;14201;43.188;24.160;2023-09-18T02:36:08;100098.94;;;18.79;95.94
26531;BME280;14201;43.188;24.160;2023-09-18T02:38:33;100104.91;;;18.68;96.40
26531;BME280;14201;43.188;24.160;2023-09-18T02:41:00;100103.19;;;18.69;96.64
26531;BME280;14201;43.188;24.160;2023-09-18T02:43:26;100099.28;;;18.48;97.82
26531;BME280;14201;43.188;24.160;2023-09-18T02:45:52;100098.31;;;18.42;98.82
26531;BME280;14201;43.188;24.160;2023-09-18T02:48:18;100104.56;;;18.48;99.03
26531;BME280;14201;43.188;24.160;2023-09-18T02:50:44;100111.56;;;18.46;98.19
26531;BME280;14201;43.188;24.160;2023-09-18T02:53:23;100102.75;;;18.44;98.00
26531;BME280;14201;43.188;24.160;2023-09-18T02:55:54;100087.09;;;18.54;96.49
26531;BME280;14201;43.188;24.160;2023-09-18T02:58:20;100107.28;;;18.53;96.51
26531;BME280;14201;43.188;24.160;2023-09-18T03:00:48;100101.03;;;18.46;96.53
26531;BME280;14201;43.188;24.160;2023-09-18T03:03:16;100107.19;;;18.47;95.85
26531;BME280;14201;43.188;24.160;2023-09-18T03:05:43;100102.00;;;18.53;95.36
26531;BME280;14201;43.188;24.160;2023-09-18T03:08:10;100115.25;;;18.56;95.10
26531;BME280;14201;43.188;24.160;2023-09-18T03:10:40;100110.84;;;18.54;94.93
26531;BME280;14201;43.188;24.160;2023-09-18T03:13:07;100109.94;;;18.55;95.30
26531;BME280;14201;43.188;24.160;2023-09-18T03:15:34;100115.38;;;18.62;94.67
26531;BME280;14201;43.188;24.160;2023-09-18T03:18:02;100111.69;;;18.53;94.96
26531;BME280;14201;43.188;24.160;2023-09-18T03:20:30;100115.13;;;18.48;94.85
26531;BME280;14201;43.188;24.160;2023-09-18T03:22:57;100115.97;;;18.46;95.20
26531;BME280;14201;43.188;24.160;2023-09-18T03:25:23;100107.09;;;18.42;94.94
26531;BME280;14201;43.188;24.160;2023-09-18T03:27:53;100116.84;;;18.46;94.82
26531;BME280;14201;43.188;24.160;2023-09-18T03:30:19;100108.88;;;18.43;94.36
26531;BME280;14201;43.188;24.160;2023-09-18T03:32:45;100110.66;;;18.44;95.24
26531;BME280;14201;43.188;24.160;2023-09-18T03:35:11;100117.63;;;18.41;95.93
26531;BME280;14201;43.188;24.160;2023-09-18T03:37:51;100110.59;;;18.41;96.23
26531;BME280;14201;43.188;24.160;2023-09-18T03:40:18;100110.69;;;18.46;96.00
26531;BME280;14201;43.188;24.160;2023-09-18T03:42:44;100111.56;;;18.46;95.59
26531;BME280;14201;43.188;24.160;2023-09-18T03:45:10;100114.13;;;18.43;96.28
26531;BME280;14201;43.188;24.160;2023-09-18T03:47:37;100108.72;;;18.36;97.09
26531;BME280;14201;43.188;24.160;2023-09-18T03:50:08;100118.50;;;18.41;97.29
26531;BME280;14201;43.188;24.160;2023-09-18T03:52:35;100115.16;;;18.50;96.55
26531;BME280;14201;43.188;24.160;2023-09-18T03:55:01;100111.63;;;18.49;96.22
26531;BME280;14201;43.188;24.160;2023-09-18T03:57:26;100111.75;;;18.56;96.08
26531;BME280;14201;43.188;24.160;2023-09-18T03:59:52;100109.13;;;18.57;95.30
26531;BME280;14201;43.188;24.160;2023-09-18T04:02:17;100114.63;;;18.69;95.02
26531;BME280;14201;43.188;24.160;2023-09-18T04:04:43;100108.47;;;18.70;94.86
26531;BME280;14201;43.188;24.160;2023-09-18T04:07:09;100117.28;;;18.73;94.54
26531;BME280;14201;43.188;24.160;2023-09-18T04:09:35;100109.38;;;18.73;93.84
26531;BME280;14201;43.188;24.160;2023-09-18T04:12:02;100107.66;;;18.76;93.37
26531;BME280;14201;43.188;24.160;2023-09-18T04:14:27;100110.38;;;18.79;92.37
26531;BME280;14201;43.188;24.160;2023-09-18T04:16:53;100108.59;;;18.78;90.79
26531;BME280;14201;43.188;24.160;2023-09-18T04:19:19;100107.72;;;18.78;89.68
26531;BME280;14201;43.188;24.160;2023-09-18T04:21:44;100106.78;;;18.76;89.70
26531;BME280;14201;43.188;24.160;2023-09-18T04:24:10;100112.03;;;18.74;90.86
26531;BME280;14201;43.188;24.160;2023-09-18T04:26:36;100108.47;;;18.69;91.37
26531;BME280;14201;43.188;24.160;2023-09-18T04:29:03;100113.84;;;18.75;91.39
26531;BME280;14201;43.188;24.160;2023-09-18T04:31:29;100111.19;;;18.75;89.18
26531;BME280;14201;43.188;24.160;2023-09-18T04:33:55;100116.47;;;18.75;89.21
26531;BME280;14201;43.188;24.160;2023-09-18T04:36:21;100121.75;;;18.75;89.50
26531;BME280;14201;43.188;24.160;2023-09-18T04:38:46;100119.16;;;18.78;90.14
26531;BME280;14201;43.188;24.160;2023-09-18T04:41:14;100124.44;;;18.77;90.40
26531;BME280;14201;43.188;24.160;2023-09-18T04:43:40;100122.56;;;18.73;89.68
26531;BME280;14201;43.188;24.160;2023-09-18T04:46:06;100128.72;;;18.72;89.52
26531;BME280;14201;43.188;24.160;2023-09-18T04:48:33;100130.44;;;18.69;90.00
26531;BME280;14201;43.188;24.160;2023-09-18T04:50:59;100129.41;;;18.60;90.56
26531;BME280;14201;43.188;24.160;2023-09-18T04:53:26;100142.97;;;18.80;90.62
26531;BME280;14201;43.188;24.160;2023-09-18T04:55:52;100143.19;;;18.92;90.90
26531;BME280;14201;43.188;24.160;2023-09-18T04:58:18;100139.84;;;19.05;90.42
26531;BME280;14201;43.188;24.160;2023-09-18T05:00:44;100139.16;;;19.16;89.29
26531;BME280;14201;43.188;24.160;2023-09-18T05:03:10;100138.25;;;19.15;88.75
26531;BME280;14201;43.188;24.160;2023-09-18T05:05:36;100132.25;;;19.25;88.02
26531;BME280;14201;43.188;24.160;2023-09-18T05:08:04;100135.97;;;19.37;87.27
26531;BME280;14201;43.188;24.160;2023-09-18T05:10:36;100137.84;;;19.47;87.17
26531;BME280;14201;43.188;24.160;2023-09-18T05:13:02;100137.09;;;19.54;86.89
26531;BME280;14201;43.188;24.160;2023-09-18T05:15:28;100134.47;;;19.57;86.83
26531;BME280;14201;43.188;24.160;2023-09-18T05:17:55;100133.72;;;19.67;86.15
26531;BME280;14201;43.188;24.160;2023-09-18T05:20:23;100144.44;;;19.77;86.21
26531;BME280;14201;43.188;24.160;2023-09-18T05:22:51;100134.84;;;19.85;86.65
26531;BME280;14201;43.188;24.160;2023-09-18T05:25:19;100141.16;;;19.95;86.71
26531;BME280;14201;43.188;24.160;2023-09-18T05:27:47;100142.25;;;20.11;86.09
26531;BME280;14201;43.188;24.160;2023-09-18T05:30:25;100143.06;;;20.05;85.58
26531;BME280;14201;43.188;24.160;2023-09-18T05:32:54;100134.47;;;20.26;85.13
26531;BME280;14201;43.188;24.160;2023-09-18T05:35:19;100139.06;;;20.47;84.48
26531;BME280;14201;43.188;24.160;2023-09-18T05:37:46;100146.28;;;20.59;84.52
26531;BME280;14201;43.188;24.160;2023-09-18T05:40:13;100143.78;;;20.71;83.23
26531;BME280;14201;43.188;24.160;2023-09-18T05:42:41;100135.94;;;20.83;82.02
26531;BME280;14201;43.188;24.160;2023-09-18T05:45:11;100142.22;;;20.96;82.67
26531;BME280;14201;43.188;24.160;2023-09-18T05:47:37;100148.53;;;21.12;81.67
26531;BME280;14201;43.188;24.160;2023-09-18T05:50:07;100134.44;;;21.22;80.69
26531;BME280;14201;43.188;24.160;2023-09-18T05:52:33;100142.50;;;21.36;80.39
26531;BME280;14201;43.188;24.160;2023-09-18T05:54:59;100149.69;;;21.47;80.66
26531;BME280;14201;43.188;24.160;2023-09-18T05:57:25;100145.25;;;21.47;80.41
26531;BME280;14201;43.188;24.160;2023-09-18T05:59:50;100146.22;;;21.60;79.91
26531;BME280;14201;43.188;24.160;2023-09-18T06:02:16;100157.81;;;21.77;80.34
26531;BME280;14201;43.188;24.160;2023-09-18T06:04:42;100160.50;;;21.90;79.25
26531;BME280;14201;43.188;24.160;2023-09-18T06:07:08;100154.38;;;22.08;78.76
26531;BME280;14201;43.188;24.160;2023-09-18T06:09:34;100169.47;;;22.21;78.32
26531;BME280;14201;43.188;24.160;2023-09-18T06:12:00;100159.81;;;22.32;77.90
26531;BME280;14201;43.188;24.160;2023-09-18T06:14:25;100165.16;;;22.48;75.41
26531;BME280;14201;43.188;24.160;2023-09-18T06:16:51;100162.53;;;22.55;74.97
26531;BME280;14201;43.188;24.160;2023-09-18T06:19:16;100161.63;;;22.64;74.86
26531;BME280;14201;43.188;24.160;2023-09-18T06:21:45;100172.31;;;22.84;73.98
26531;BME280;14201;43.188;24.160;2023-09-18T06:24:10;100170.53;;;22.97;74.46
26531;BME280;14201;43.188;24.160;2023-09-18T06:26:36;100167.03;;;23.23;72.05
26531;BME280;14201;43.188;24.160;2023-09-18T06:29:02;100162.56;;;23.48;72.65
26531;BME280;14201;43.188;24.160;2023-09-18T06:31:28;100177.56;;;23.63;71.25
26531;BME280;14201;43.188;24.160;2023-09-18T06:33:56;100172.25;;;23.75;69.79
26531;BME280;14201;43.188;24.160;2023-09-18T06:36:22;100180.16;;;24.03;69.69
26531;BME280;14201;43.188;24.160;2023-09-18T06:38:47;100179.19;;;24.19;68.80
26531;BME280;14201;43.188;24.160;2023-09-18T06:41:12;100176.44;;;24.34;68.96
26531;BME280;14201;43.188;24.160;2023-09-18T06:43:39;100172.81;;;24.59;66.81
26531;BME280;14201;43.188;24.160;2023-09-18T06:46:06;100182.59;;;24.56;66.07
26531;BME280;14201;43.188;24.160;2023-09-18T06:48:32;100178.31;;;24.15;67.23
26531;BME280;14201;43.188;24.160;2023-09-18T06:50:58;100181.91;;;24.05;67.47
26531;BME280;14201;43.188;24.160;2023-09-18T06:53:26;100185.56;;;23.63;69.04
26531;BME280;14201;43.188;24.160;2023-09-18T06:55:53;100168.75;;;23.48;69.53
26531;BME280;14201;43.188;24.160;2023-09-18T06:58:19;100183.78;;;23.65;70.25
26531;BME280;14201;43.188;24.160;2023-09-18T07:00:44;100188.22;;;23.64;70.80
26531;BME280;14201;43.188;24.160;2023-09-18T07:03:10;100186.50;;;23.06;72.60
26531;BME280;14201;43.188;24.160;2023-09-18T07:05:37;100187.38;;;23.08;73.79
26531;BME280;14201;43.188;24.160;2023-09-18T07:08:03;100188.25;;;23.32;72.88
26531;BME280;14201;43.188;24.160;2023-09-18T07:10:31;100187.34;;;23.64;73.99
26531;BME280;14201;43.188;24.160;2023-09-18T07:12:58;100184.66;;;23.85;71.71
26531;BME280;14201;43.188;24.160;2023-09-18T07:15:23;100186.41;;;23.92;71.74
26531;BME280;14201;43.188;24.160;2023-09-18T07:17:49;100181.00;;;24.08;72.17
26531;BME280;14201;43.188;24.160;2023-09-18T07:20:15;100184.53;;;24.16;69.74
26531;BME280;14201;43.188;24.160;2023-09-18T07:22:45;100189.72;;;24.41;69.52
26531;BME280;14201;43.188;24.160;2023-09-18T07:25:12;100189.53;;;24.77;71.55
26531;BME280;14201;43.188;24.160;2023-09-18T07:27:38;100184.88;;;25.07;67.36
26531;BME280;14201;43.188;24.160;2023-09-18T07:30:06;100189.13;;;25.33;66.99
26531;BME280;14201;43.188;24.160;2023-09-18T07:32:32;100184.25;;;25.77;66.92
26531;BME280;14201;43.188;24.160;2023-09-18T07:34:57;100188.31;;;26.10;63.66
26531;BME280;14201;43.188;24.160;2023-09-18T07:37:23;100190.66;;;26.35;61.96
26531;BME280;14201;43.188;24.160;2023-09-18T07:39:49;100191.91;;;26.74;61.42
26531;BME280;14201;43.188;24.160;2023-09-18T07:42:14;100187.09;;;26.96;59.12
26531;BME280;14201;43.188;24.160;2023-09-18T07:44:40;100191.22;;;27.17;60.54
26531;BME280;14201;43.188;24.160;2023-09-18T07:47:06;100190.25;;;27.24;58.63
26531;BME280;14201;43.188;24.160;2023-09-18T07:49:31;100198.88;;;27.40;57.69
26531;BME280;14201;43.188;24.160;2023-09-18T07:51:58;100193.44;;;27.45;57.11
26531;BME280;14201;43.188;24.160;2023-09-18T07:54:24;100188.75;;;27.05;57.83
26531;BME280;14201;43.188;24.160;2023-09-18T07:56:50;100186.31;;;26.91;57.89
26531;BME280;14201;43.188;24.160;2023-09-18T07:59:15;100193.56;;;26.83;57.16
26531;BME280;14201;43.188;24.160;2023-09-18T08:01:41;100193.75;;;26.70;58.41
26531;BME280;14201;43.188;24.160;2023-09-18T08:04:07;100193.66;;;26.75;57.68
26531;BME280;14201;43.188;24.160;2023-09-18T08:06:32;100193.66;;;26.77;57.94
26531;BME280;14201;43.188;24.160;2023-09-18T08:08:58;100192.47;;;26.96;59.23
26531;BME280;14201;43.188;24.160;2023-09-18T08:11:23;100185.84;;;26.64;57.92
26531;BME280;14201;43.188;24.160;2023-09-18T08:13:48;100182.69;;;26.95;58.05
26531;BME280;14201;43.188;24.160;2023-09-18T08:16:14;100180.53;;;27.17;57.67
26531;BME280;14201;43.188;24.160;2023-09-18T08:18:40;100180.91;;;27.47;58.39
26531;BME280;14201;43.188;24.160;2023-09-18T08:21:07;100179.97;;;27.51;57.16
26531;BME280;14201;43.188;24.160;2023-09-18T08:23:34;100180.72;;;27.58;57.30
26531;BME280;14201;43.188;24.160;2023-09-18T08:26:00;100182.44;;;27.62;56.93
26531;BME280;14201;43.188;24.160;2023-09-18T08:28:26;100185.22;;;27.56;55.37
26531;BME280;14201;43.188;24.160;2023-09-18T08:30:51;100184.41;;;27.52;56.39
26531;BME280;14201;43.188;24.160;2023-09-18T08:33:17;100183.25;;;27.65;56.74
26531;BME280;14201;43.188;24.160;2023-09-18T08:35:42;100183.69;;;27.87;56.43
26531;BME280;14201;43.188;24.160;2023-09-18T08:38:09;100184.94;;;28.16;55.62
26531;BME280;14201;43.188;24.160;2023-09-18T08:40:34;100184.59;;;28.32;53.18
26531;BME280;14201;43.188;24.160;2023-09-18T08:43:00;100179.06;;;27.99;54.47
26531;BME280;14201;43.188;24.160;2023-09-18T08:45:35;100171.25;;;27.86;55.19
26531;BME280;14201;43.188;24.160;2023-09-18T08:48:03;100166.88;;;27.82;55.72
26531;BME280;14201;43.188;24.160;2023-09-18T08:50:29;100163.13;;;27.91;54.78
26531;BME280;14201;43.188;24.160;2023-09-18T08:52:55;100161.94;;;28.06;53.67
26531;BME280;14201;43.188;24.160;2023-09-18T08:55:20;100161.34;;;28.32;53.72
26531;BME280;14201;43.188;24.160;2023-09-18T08:57:47;100157.06;;;28.25;53.92
26531;BME280;14201;43.188;24.160;2023-09-18T09:00:14;100152.06;;;28.08;52.64
26531;BME280;14201;43.188;24.160;2023-09-18T09:02:45;100150.72;;;28.31;53.21
26531;BME280;14201;43.188;24.160;2023-09-18T09:05:10;100154.53;;;28.59;50.45
26531;BME280;14201;43.188;24.160;2023-09-18T09:07:39;100155.75;;;28.83;50.03
26531;BME280;14201;43.188;24.160;2023-09-18T09:10:05;100142.22;;;29.24;50.48
26531;BME280;14201;43.188;24.160;2023-09-18T09:15:14;100143.91;;;29.61;48.88
26531;BME280;14201;43.188;24.160;2023-09-18T09:17:41;100141.88;;;29.69;46.79
26531;BME280;14201;43.188;24.160;2023-09-18T09:20:10;100134.84;;;29.32;47.22
26531;BME280;14201;43.188;24.160;2023-09-18T09:22:37;100135.03;;;28.89;48.15
26531;BME280;14201;43.188;24.160;2023-09-18T09:25:03;100135.69;;;28.98;48.93
26531;BME280;14201;43.188;24.160;2023-09-18T09:27:28;100133.59;;;29.45;48.02
26531;BME280;14201;43.188;24.160;2023-09-18T09:29:59;100128.00;;;29.86;46.64
26531;BME280;14201;43.188;24.160;2023-09-18T09:32:26;100132.72;;;30.08;45.80
26531;BME280;14201;43.188;24.160;2023-09-18T09:34:56;100130.78;;;30.42;47.14
26531;BME280;14201;43.188;24.160;2023-09-18T09:37:29;100135.09;;;29.56;45.54
26531;BME280;14201;43.188;24.160;2023-09-18T09:39:55;100124.94;;;29.34;45.41
26531;BME280;14201;43.188;24.160;2023-09-18T09:42:21;100120.16;;;29.78;45.79
26531;BME280;14201;43.188;24.160;2023-09-18T09:45:03;100122.03;;;29.76;45.22
26531;BME280;14201;43.188;24.160;2023-09-18T09:47:32;100123.25;;;29.63;45.10
26531;BME280;14201;43.188;24.160;2023-09-18T09:49:58;100121.03;;;29.12;45.66
26531;BME280;14201;43.188;24.160;2023-09-18T09:52:23;100121.91;;;29.47;45.72
26531;BME280;14201;43.188;24.160;2023-09-18T09:54:49;100117.16;;;29.89;44.97
26531;BME280;14201;43.188;24.160;2023-09-18T09:57:14;100117.44;;;30.39;43.84
26531;BME280;14201;43.188;24.160;2023-09-18T09:59:40;100120.25;;;30.91;43.42
26531;BME280;14201;43.188;24.160;2023-09-18T10:02:10;100115.00;;;31.38;42.69
26531;BME280;14201;43.188;24.160;2023-09-18T10:04:39;100114.59;;;31.76;40.72
26531;BME280;14201;43.188;24.160;2023-09-18T10:07:07;100107.91;;;32.10;39.69
26531;BME280;14201;43.188;24.160;2023-09-18T10:09:35;100107.66;;;32.16;38.68
26531;BME280;14201;43.188;24.160;2023-09-18T10:12:03;100099.34;;;31.51;38.66
26531;BME280;14201;43.188;24.160;2023-09-18T10:14:35;100110.34;;;30.65;40.12
26531;BME280;14201;43.188;24.160;2023-09-18T10:17:14;100110.94;;;31.01;41.69
26531;BME280;14201;43.188;24.160;2023-09-18T10:20:09;100107.72;;;30.90;40.39
26531;BME280;14201;43.188;24.160;2023-09-18T10:22:45;100100.50;;;30.92;41.42
26531;BME280;14201;43.188;24.160;2023-09-18T10:25:15;100103.50;;;30.81;39.94
26531;BME280;14201;43.188;24.160;2023-09-18T10:27:47;100097.56;;;31.00;39.80
26531;BME280;14201;43.188;24.160;2023-09-18T10:30:34;100091.06;;;31.31;39.98
26531;BME280;14201;43.188;24.160;2023-09-18T10:33:02;100096.00;;;31.43;38.88
26531;BME280;14201;43.188;24.160;2023-09-18T10:35:29;100092.59;;;31.63;38.75
26531;BME280;14201;43.188;24.160;2023-09-18T10:37:55;100085.38;;;30.61;38.65
26531;BME280;14201;43.188;24.160;2023-09-18T10:40:22;100088.03;;;30.35;39.83
26531;BME280;14201;43.188;24.160;2023-09-18T10:42:51;100077.00;;;30.97;39.59
26531;BME280;14201;43.188;24.160;2023-09-18T10:45:17;100080.28;;;31.31;36.89
26531;BME280;14201;43.188;24.160;2023-09-18T10:47:44;100077.59;;;31.56;36.58
26531;BME280;14201;43.188;24.160;2023-09-18T10:50:15;100071.91;;;31.87;37.64
26531;BME280;14201;43.188;24.160;2023-09-18T10:52:47;100073.38;;;32.20;37.83
26531;BME280;14201;43.188;24.160;2023-09-18T10:55:13;100064.53;;;32.16;35.42
26531;BME280;14201;43.188;24.160;2023-09-18T10:57:49;100067.38;;;31.40;35.71
26531;BME280;14201;43.188;24.160;2023-09-18T11:00:15;100064.25;;;31.53;36.54
26531;BME280;14201;43.188;24.160;2023-09-18T11:02:41;100060.19;;;31.66;36.96
26531;BME280;14201;43.188;24.160;2023-09-18T11:05:07;100048.34;;;31.70;35.44
26531;BME280;14201;43.188;24.160;2023-09-18T11:07:32;100054.72;;;31.43;35.65
26531;BME280;14201;43.188;24.160;2023-09-18T11:09:58;100049.44;;;31.65;35.47
26531;BME280;14201;43.188;24.160;2023-09-18T11:12:42;100041.59;;;31.82;35.05
26531;BME280;14201;43.188;24.160;2023-09-18T11:15:09;100035.31;;;32.05;35.43
26531;BME280;14201;43.188;24.160;2023-09-18T11:17:58;100044.00;;;31.90;34.57
26531;BME280;14201;43.188;24.160;2023-09-18T11:20:24;100043.16;;;32.11;35.31
26531;BME280;14201;43.188;24.160;2023-09-18T11:22:59;100038.47;;;32.38;35.07
26531;BME280;14201;43.188;24.160;2023-09-18T11:25:38;100034.81;;;32.62;34.58
26531;BME280;14201;43.188;24.160;2023-09-18T11:28:07;100037.69;;;32.79;33.16
26531;BME280;14201;43.188;24.160;2023-09-18T11:30:36;100043.56;;;32.24;34.06
26531;BME280;14201;43.188;24.160;2023-09-18T11:33:06;100037.50;;;31.72;34.40
26531;BME280;14201;43.188;24.160;2023-09-18T11:35:35;100033.97;;;31.46;33.91
26531;BME280;14201;43.188;24.160;2023-09-18T11:40:32;100042.25;;;30.08;36.15
26531;BME280;14201;43.188;24.160;2023-09-18T11:43:26;100032.72;;;29.98;36.09
26531;BME280;14201;43.188;24.160;2023-09-18T11:46:01;100009.78;;;30.14;35.85
26531;BME280;14201;43.188;24.160;2023-09-18T11:48:30;100016.97;;;29.86;36.26
26531;BME280;14201;43.188;24.160;2023-09-18T11:51:00;100003.84;;;30.04;35.66
26531;BME280;14201;43.188;24.160;2023-09-18T11:53:28;100006.97;;;30.19;36.81
26531;BME280;14201;43.188;24.160;2023-09-18T11:55:54;99998.22;;;30.67;36.56
26531;BME280;14201;43.188;24.160;2023-09-18T11:58:21;100008.34;;;31.11;36.14
26531;BME280;14201;43.188;24.160;2023-09-18T12:00:49;99998.91;;;30.19;35.93
26531;BME280;14201;43.188;24.160;2023-09-18T12:03:16;100000.53;;;30.25;36.37
26531;BME280;14201;43.188;24.160;2023-09-18T12:05:44;99987.72;;;30.59;35.58
26531;BME280;14201;43.188;24.160;2023-09-18T12:08:11;99977.72;;;30.63;35.42
26531;BME280;14201;43.188;24.160;2023-09-18T12:10:37;99974.81;;;30.69;35.35
26531;BME280;14201;43.188;24.160;2023-09-18T12:13:06;99976.91;;;30.86;34.99
26531;BME280;14201;43.188;24.160;2023-09-18T12:15:37;99972.56;;;30.82;34.02
26531;BME280;14201;43.188;24.160;2023-09-18T12:18:09;99970.06;;;31.03;33.82
26531;BME280;14201;43.188;24.160;2023-09-18T12:20:37;99957.53;;;31.01;34.09
26531;BME280;14201;43.188;24.160;2023-09-18T12:23:03;99960.69;;;30.89;34.99
26531;BME280;14201;43.188;24.160;2023-09-18T12:25:29;99961.31;;;30.96;34.06
26531;BME280;14201;43.188;24.160;2023-09-18T12:27:55;99959.06;;;31.09;33.88
26531;BME280;14201;43.188;24.160;2023-09-18T12:30:22;99966.22;;;31.33;33.79
26531;BME280;14201;43.188;24.160;2023-09-18T12:32:52;99966.91;;;31.38;33.32
26531;BME280;14201;43.188;24.160;2023-09-18T12:35:18;99959.59;;;31.42;33.61
26531;BME280;14201;43.188;24.160;2023-09-18T12:37:44;99963.91;;;30.74;34.07
26531;BME280;14201;43.188;24.160;2023-09-18T12:40:27;99952.91;;;29.73;35.19
26531;BME280;14201;43.188;24.160;2023-09-18T12:42:57;99960.88;;;30.03;34.94
26531;BME280;14201;43.188;24.160;2023-09-18T12:45:27;99950.66;;;30.14;34.26
26531;BME280;14201;43.188;24.160;2023-09-18T12:47:55;99952.72;;;30.34;36.04